This is the latest recevied weather packets stored in our database for station/object KI2K. If no packets are shown the sender has not sent any weather packets the latest 1 day(s).
| Time | Temp. | Humidity | Pressure | Rain* | Wind** | Luminosity | Snow |
|---|---|---|---|---|---|---|---|
| 1778069329 | 8.33° C | 99% | 1012.3 hPa | 0 mm | - | 110 W/m² | - |
| 1778068724 | 7.78° C | 99% | 1011.9 hPa | 0 mm | - | 72 W/m² | - |
| 1778068422 | 7.22° C | 99% | 1011.7 hPa | 0 mm | - | 50 W/m² | - |
| 1778068120 | 7.22° C | 99% | 1011.8 hPa | 0 mm | - | 30 W/m² | - |
| 1778067516 | 7.22° C | 99% | 1011.5 hPa | 0 mm | - | 42 W/m² | - |
| 1778067213 | 6.67° C | 99% | 1011.2 hPa | 0 mm | - | 28 W/m² | - |
| 1778066304 | 6.67° C | 99% | 1011.3 hPa | 0 mm | - | 24 W/m² | - |
| 1778066002 | 6.67° C | 99% | 1011.3 hPa | 0 mm | - | 19 W/m² | - |
| 1778065396 | 6.11° C | 99% | 1010.8 hPa | 0 mm | - | 9 W/m² | - |
| 1778065093 | 6.67° C | 99% | 1010.5 hPa | 0 mm | - | 6 W/m² | - |
| 1778064185 | 6.67° C | 99% | 1010.7 hPa | 0 mm | - | 1 W/m² | - |
| 1778062672 | 7.22° C | 99% | 1009.5 hPa | 0 mm | - | 0 W/m² | - |
| 1778061462 | 7.78° C | 99% | 1009.6 hPa | 0 mm | - | 0 W/m² | - |
| 1778060252 | 7.78° C | 99% | 1010.4 hPa | 0 mm | - | 0 W/m² | - |
| 1778059344 | 7.78° C | 99% | 1009.3 hPa | 0 mm | - | 0 W/m² | - |
| 1778058133 | 7.78° C | 99% | 1009.3 hPa | 0 mm | - | 0 W/m² | - |
| 1778057830 | 7.78° C | 99% | 1009.5 hPa | 0 mm | - | 0 W/m² | - |
| 1778057526 | 7.78° C | 99% | 1009.4 hPa | 0 mm | - | 0 W/m² | - |
| 1778057223 | 7.78° C | 99% | 1009.3 hPa | 0 mm | - | 0 W/m² | - |
| 1778056919 | 7.78° C | 99% | 1009.1 hPa | 0 mm | - | 0 W/m² | - |
| 1778056616 | 7.78° C | 99% | 1009.5 hPa | 0 mm | - | 0 W/m² | - |
| 1778056314 | 7.78° C | 99% | 1009.4 hPa | 0 mm | - | 0 W/m² | - |
| 1778055705 | 7.78° C | 99% | 1009.2 hPa | 0 mm | - | 0 W/m² | - |
| 1778055101 | 7.78° C | 99% | 1009.4 hPa | 0 mm | - | 0 W/m² | - |
| 1778054495 | 7.78° C | 99% | 1009.8 hPa | 0 mm | - | 0 W/m² | - |
* Rain latest hour (hover to see other rain measurements)
** Current wind speed in m/s (hover to see current wind gust speed)